createdAt,value
2018-03-26T00:02:17.612Z,6.87
2018-03-26T00:04:44.697Z,5.60
2018-03-26T00:07:11.816Z,4.40
2018-03-26T00:09:38.938Z,5.37
2018-03-26T00:12:06.086Z,4.37
2018-03-26T00:14:33.586Z,5.57
2018-03-26T00:17:00.716Z,4.87
2018-03-26T00:19:28.586Z,5.03
2018-03-26T00:21:56.484Z,4.17
2018-03-26T00:24:23.594Z,4.30
2018-03-26T00:26:50.684Z,4.47
2018-03-26T00:29:17.765Z,4.77
2018-03-26T00:31:45.661Z,4.53
2018-03-26T00:34:12.809Z,5.93
2018-03-26T00:36:39.984Z,4.13
2018-03-26T00:39:07.074Z,5.40
2018-03-26T00:41:34.181Z,4.53
2018-03-26T00:44:01.276Z,4.20
2018-03-26T00:46:29.205Z,4.90
2018-03-26T00:48:56.279Z,8.70
2018-03-26T00:51:23.353Z,5.63
2018-03-26T00:53:51.254Z,5.40
2018-03-26T00:56:18.362Z,5.03
2018-03-26T00:58:45.579Z,6.90
2018-03-26T01:01:12.730Z,6.30
2018-03-26T01:03:39.822Z,5.40
2018-03-26T01:06:06.966Z,4.53
2018-03-26T01:08:34.067Z,4.47
2018-03-26T01:11:01.164Z,4.13
2018-03-26T01:13:28.250Z,4.17
2018-03-26T01:15:56.052Z,5.73
2018-03-26T01:18:23.124Z,5.00
2018-03-26T01:20:50.236Z,7.00
2018-03-26T01:23:17.325Z,4.40
2018-03-26T01:25:45.204Z,5.30
2018-03-26T01:28:12.300Z,5.40
2018-03-26T01:30:39.450Z,4.30
2018-03-26T01:33:06.550Z,5.53
2018-03-26T01:35:33.656Z,6.03
2018-03-26T01:38:00.756Z,4.90
2018-03-26T01:40:27.961Z,6.53
2018-03-26T01:42:55.051Z,4.70
2018-03-26T01:45:22.138Z,5.47
2018-03-26T01:47:49.236Z,3.83
2018-03-26T01:50:16.886Z,4.17
2018-03-26T01:52:44.020Z,4.93
2018-03-26T01:55:11.116Z,5.23
2018-03-26T01:57:39.026Z,4.53
2018-03-26T02:00:06.286Z,5.30
2018-03-26T02:02:33.430Z,5.67
2018-03-26T02:05:00.528Z,4.30
2018-03-26T02:07:27.604Z,7.83
2018-03-26T02:09:54.688Z,4.30
2018-03-26T02:12:22.543Z,4.80
2018-03-26T02:14:49.650Z,5.03
2018-03-26T02:17:16.752Z,7.80
2018-03-26T02:19:43.869Z,5.03
2018-03-26T02:22:10.981Z,7.13
2018-03-26T02:24:38.890Z,5.47
2018-03-26T02:27:06.907Z,4.37
2018-03-26T02:29:33.993Z,4.10
2018-03-26T02:32:01.091Z,4.50
2018-03-26T02:34:28.250Z,5.80
2018-03-26T02:36:55.361Z,4.93
2018-03-26T02:39:22.513Z,4.87
2018-03-26T02:41:49.622Z,4.17
2018-03-26T02:44:17.523Z,5.13
2018-03-26T02:46:44.606Z,5.30
2018-03-26T02:49:11.720Z,4.63
2018-03-26T02:51:38.875Z,5.57
2018-03-26T02:54:05.967Z,4.70
2018-03-26T02:56:34.268Z,6.13
2018-03-26T02:59:01.411Z,5.10
2018-03-26T03:01:28.678Z,4.87
2018-03-26T03:03:55.784Z,3.87
2018-03-26T03:06:22.932Z,3.97
2018-03-26T03:08:50.015Z,4.87
2018-03-26T03:11:17.127Z,6.43
2018-03-26T03:13:44.214Z,4.60
2018-03-26T03:16:11.158Z,4.50
2018-03-26T03:18:38.232Z,4.63
2018-03-26T03:21:05.335Z,4.43
2018-03-26T03:23:32.440Z,4.70
2018-03-26T03:25:59.526Z,5.27
2018-03-26T03:28:26.617Z,4.03
2018-03-26T03:30:53.696Z,4.23
2018-03-26T03:33:20.791Z,4.40
2018-03-26T03:35:47.861Z,4.20
2018-03-26T03:38:15.087Z,3.80
2018-03-26T03:40:42.188Z,6.30
2018-03-26T03:43:10.209Z,6.97
2018-03-26T03:45:37.286Z,4.13
2018-03-26T03:48:04.377Z,4.60
2018-03-26T03:50:31.618Z,5.63
2018-03-26T03:52:58.707Z,4.63
2018-03-26T03:55:26.566Z,5.40
2018-03-26T03:57:54.458Z,4.17
2018-03-26T04:00:21.557Z,4.27
2018-03-26T04:02:48.633Z,4.83
2018-03-26T04:05:16.469Z,3.77
2018-03-26T04:07:44.320Z,4.97
2018-03-26T04:10:11.399Z,4.13
2018-03-26T04:12:39.264Z,5.80
2018-03-26T04:15:06.422Z,4.93
2018-03-26T04:17:33.681Z,5.07
2018-03-26T04:20:01.612Z,4.77
2018-03-26T04:22:28.956Z,5.63
2018-03-26T04:24:56.069Z,5.23
2018-03-26T04:27:23.930Z,6.57
2018-03-26T04:29:51.135Z,4.50
2018-03-26T04:32:18.237Z,5.43
2018-03-26T04:34:45.307Z,6.23
2018-03-26T04:37:12.400Z,5.03
2018-03-26T04:39:39.501Z,5.00
2018-03-26T04:42:06.970Z,5.03
2018-03-26T04:44:34.060Z,4.90
2018-03-26T04:47:01.374Z,4.57
2018-03-26T04:49:28.501Z,6.20
2018-03-26T04:51:55.585Z,7.67
2018-03-26T04:54:22.715Z,5.17
2018-03-26T04:56:49.807Z,4.13
2018-03-26T04:59:17.668Z,4.93
2018-03-26T05:01:45.538Z,4.70
2018-03-26T05:04:12.644Z,8.27
2018-03-26T05:06:40.522Z,6.50
2018-03-26T05:09:07.800Z,4.23
2018-03-26T05:11:34.706Z,5.23
2018-03-26T05:14:02.566Z,8.50
2018-03-26T05:16:29.664Z,5.07
2018-03-26T05:18:56.892Z,6.93
2018-03-26T05:21:24.044Z,4.40
2018-03-26T05:23:51.153Z,5.70
2018-03-26T05:26:18.239Z,5.13
2018-03-26T05:28:46.110Z,6.30
2018-03-26T05:31:13.220Z,5.13
2018-03-26T05:33:40.479Z,6.03
2018-03-26T05:36:07.804Z,4.23
2018-03-26T05:38:34.904Z,4.30
2018-03-26T05:41:02.744Z,5.77
2018-03-26T05:43:29.824Z,6.03
2018-03-26T05:45:57.409Z,5.40
2018-03-26T05:48:24.518Z,6.83
2018-03-26T05:50:51.584Z,8.03
2018-03-26T05:53:18.718Z,8.57
2018-03-26T05:55:45.852Z,7.63
2018-03-26T05:58:12.958Z,9.17
2018-03-26T06:00:40.813Z,6.60
2018-03-26T06:03:07.735Z,8.17
2018-03-26T06:05:34.839Z,8.73
2018-03-26T06:08:02.043Z,6.67
2018-03-26T06:10:29.141Z,19.80
2018-03-26T06:12:56.240Z,12.03
2018-03-26T06:15:23.345Z,10.57
2018-03-26T06:17:50.468Z,7.27
2018-03-26T06:20:17.381Z,13.20
2018-03-26T06:22:45.234Z,7.57
2018-03-26T06:25:12.139Z,9.50
2018-03-26T06:27:39.199Z,8.90
2018-03-26T06:30:06.136Z,6.13
2018-03-26T06:32:33.091Z,13.67
2018-03-26T06:35:00.016Z,7.87
2018-03-26T06:40:29.980Z,8.82
2018-03-26T06:42:58.567Z,6.67
2018-03-26T06:45:25.671Z,13.87
2018-03-26T06:47:52.771Z,7.77
2018-03-26T06:50:19.985Z,10.13
2018-03-26T06:52:47.130Z,11.40
2018-03-26T06:55:14.279Z,7.97
2018-03-26T06:57:41.387Z,9.37
2018-03-26T07:00:08.493Z,9.07
2018-03-26T07:02:35.695Z,8.47
2018-03-26T07:05:02.852Z,13.00
2018-03-26T07:07:30.000Z,11.50
2018-03-26T07:09:57.135Z,10.63
2018-03-26T07:12:24.365Z,9.17
2018-03-26T07:14:51.743Z,11.40
2018-03-26T07:17:18.849Z,9.67
2018-03-26T07:19:45.963Z,10.87
2018-03-26T07:22:13.049Z,12.23
2018-03-26T07:24:40.155Z,10.17
2018-03-26T07:27:07.231Z,9.93
2018-03-26T07:29:34.359Z,11.97
2018-03-26T07:32:01.517Z,6.83
2018-03-26T07:34:28.613Z,17.97
2018-03-26T07:36:56.473Z,11.20
2018-03-26T07:39:23.395Z,14.03
2018-03-26T07:41:50.721Z,10.17
2018-03-26T07:44:17.825Z,9.27
2018-03-26T07:46:44.927Z,10.23
2018-03-26T07:49:12.033Z,11.83
2018-03-26T07:51:39.253Z,14.03
2018-03-26T07:54:06.389Z,9.60
2018-03-26T07:56:34.385Z,8.73
2018-03-26T07:59:01.467Z,9.07
2018-03-26T08:01:28.697Z,13.40
2018-03-26T08:03:55.783Z,8.63
2018-03-26T08:06:22.979Z,7.37
2018-03-26T08:08:50.087Z,10.03
2018-03-26T08:11:17.032Z,9.00
2018-03-26T08:13:44.943Z,12.27
2018-03-26T08:16:12.174Z,10.93
2018-03-26T08:18:40.081Z,9.20
2018-03-26T08:21:07.183Z,8.80
2018-03-26T08:23:34.322Z,7.10
2018-03-26T08:26:02.120Z,9.67
2018-03-26T08:28:29.229Z,9.33
2018-03-26T08:30:57.152Z,8.90
2018-03-26T08:33:25.161Z,9.50
2018-03-26T08:35:52.258Z,8.57
2018-03-26T08:38:19.377Z,7.13
2018-03-26T08:40:46.469Z,9.90
2018-03-26T08:43:13.574Z,9.73
2018-03-26T08:45:40.726Z,8.63
2018-03-26T08:48:07.827Z,8.90
2018-03-26T08:50:35.024Z,8.13
2018-03-26T08:53:02.129Z,8.97
2018-03-26T08:55:29.224Z,7.40
2018-03-26T08:57:56.353Z,5.90
2018-03-26T09:00:23.466Z,8.30
2018-03-26T09:02:50.564Z,11.13
2018-03-26T09:05:17.654Z,10.43
2018-03-26T09:07:44.751Z,7.57
2018-03-26T09:10:11.872Z,7.27
2018-03-26T09:12:38.993Z,11.03
2018-03-26T09:15:07.091Z,9.07
2018-03-26T09:17:34.205Z,7.60
2018-03-26T09:20:01.446Z,12.50
2018-03-26T09:22:28.597Z,7.90
2018-03-26T09:24:55.693Z,13.23
2018-03-26T09:27:22.797Z,12.60
2018-03-26T09:29:50.055Z,9.97
2018-03-26T09:32:17.163Z,9.20
2018-03-26T09:34:45.039Z,10.67
2018-03-26T09:37:12.391Z,9.13
2018-03-26T09:39:39.541Z,14.27
2018-03-26T09:42:06.690Z,10.53
2018-03-26T09:44:34.040Z,8.33
2018-03-26T09:47:02.040Z,11.77
2018-03-26T09:49:29.195Z,9.30
2018-03-26T09:51:56.254Z,8.07
2018-03-26T09:54:23.356Z,7.87
2018-03-26T09:56:50.489Z,14.40
2018-03-26T09:59:17.574Z,12.50
2018-03-26T10:01:50.112Z,13.33
2018-03-26T10:04:17.419Z,12.40
2018-03-26T10:06:45.590Z,11.17
2018-03-26T10:09:12.712Z,10.53
2018-03-26T10:11:39.836Z,7.37
2018-03-26T10:14:07.724Z,10.03
2018-03-26T10:16:35.813Z,9.37
2018-03-26T10:19:02.913Z,13.87
2018-03-26T10:21:30.760Z,8.03
2018-03-26T10:23:57.866Z,7.87
2018-03-26T10:26:24.972Z,14.30
2018-03-26T10:28:52.202Z,7.17
2018-03-26T10:31:19.290Z,10.13
2018-03-26T10:33:47.346Z,9.40
2018-03-26T10:36:14.442Z,11.90
2018-03-26T10:38:41.799Z,8.20
2018-03-26T10:41:09.000Z,8.13
2018-03-26T10:43:36.191Z,8.87
2018-03-26T10:46:04.015Z,15.20
2018-03-26T10:48:31.113Z,13.03
2018-03-26T10:50:58.417Z,7.70
2018-03-26T10:53:25.524Z,8.33
2018-03-26T10:55:52.758Z,9.97
2018-03-26T10:58:19.907Z,12.33
2018-03-26T11:00:47.058Z,10.33
2018-03-26T11:03:14.151Z,7.07
2018-03-26T11:05:41.295Z,8.33
2018-03-26T11:08:09.366Z,8.37
2018-03-26T11:10:36.515Z,8.37
2018-03-26T11:13:03.870Z,10.37
2018-03-26T11:15:30.951Z,8.60
2018-03-26T11:17:58.089Z,14.13
2018-03-26T11:20:25.209Z,42.90
2018-03-26T11:22:53.233Z,48.37
2018-03-26T11:25:20.337Z,54.60
2018-03-26T11:27:47.476Z,51.47
2018-03-26T11:30:14.613Z,46.87
2018-03-26T11:32:41.733Z,48.80
2018-03-26T11:35:08.825Z,49.90
2018-03-26T11:37:35.957Z,51.50
2018-03-26T11:40:03.097Z,44.07
2018-03-26T11:42:30.249Z,41.50
2018-03-26T11:44:57.355Z,45.53
2018-03-26T11:47:24.504Z,46.07
2018-03-26T11:49:51.643Z,48.70
2018-03-26T11:52:18.735Z,52.97
2018-03-26T11:54:46.659Z,43.07
2018-03-26T11:57:13.759Z,48.53
2018-03-26T11:59:41.635Z,40.77
2018-03-26T12:02:09.530Z,31.43
2018-03-26T12:04:36.659Z,32.17
2018-03-26T12:07:03.799Z,30.83
2018-03-26T12:09:30.938Z,25.77
2018-03-26T12:11:58.087Z,26.73
2018-03-26T12:14:25.203Z,21.73
2018-03-26T12:16:52.434Z,22.83
2018-03-26T12:19:19.593Z,23.30
2018-03-26T12:21:46.685Z,20.90
2018-03-26T12:24:13.780Z,23.10
2018-03-26T12:26:40.872Z,18.50
2018-03-26T12:29:07.971Z,17.87
2018-03-26T12:31:35.085Z,18.53
2018-03-26T12:34:02.171Z,19.37
2018-03-26T12:36:29.264Z,21.07
2018-03-26T12:38:56.351Z,16.80
2018-03-26T12:41:24.221Z,18.23
2018-03-26T12:43:51.362Z,21.27
2018-03-26T12:46:18.472Z,16.23
2018-03-26T12:48:46.164Z,15.07
2018-03-26T12:51:13.484Z,18.73
2018-03-26T12:53:41.399Z,18.07
2018-03-26T12:56:08.523Z,20.97
2018-03-26T12:58:36.413Z,17.57
2018-03-26T13:01:04.404Z,18.77
2018-03-26T13:03:31.546Z,17.80
2018-03-26T13:05:58.710Z,22.70
2018-03-26T13:08:25.888Z,16.53
2018-03-26T13:10:52.978Z,19.13
2018-03-26T13:13:20.109Z,18.13
2018-03-26T13:15:47.200Z,18.00
2018-03-26T13:18:14.303Z,15.53
2018-03-26T13:20:41.515Z,16.47
2018-03-26T13:23:08.666Z,16.33
2018-03-26T13:25:35.763Z,15.87
2018-03-26T13:28:02.864Z,16.03
2018-03-26T13:30:30.019Z,14.37
2018-03-26T13:32:57.171Z,15.37
2018-03-26T13:35:24.092Z,16.57
2018-03-26T13:37:51.202Z,12.00
2018-03-26T13:40:18.346Z,18.17
2018-03-26T13:42:45.705Z,16.47
2018-03-26T13:45:12.853Z,13.60
2018-03-26T13:47:40.710Z,12.07
2018-03-26T13:50:07.877Z,18.13
2018-03-26T13:52:35.066Z,12.23
2018-03-26T13:55:02.212Z,13.05
2018-03-26T13:57:29.308Z,13.87
2018-03-26T13:59:56.429Z,14.63
2018-03-26T14:02:23.518Z,10.37
2018-03-26T14:04:50.608Z,17.33
2018-03-26T14:07:17.719Z,13.00
2018-03-26T14:09:44.848Z,17.67
2018-03-26T14:12:12.116Z,17.40
2018-03-26T14:14:39.196Z,12.07
2018-03-26T14:17:06.336Z,16.77
2018-03-26T14:19:33.430Z,13.60
2018-03-26T14:22:00.540Z,16.77
2018-03-26T14:24:27.646Z,14.90
2018-03-26T14:26:54.744Z,17.23
2018-03-26T14:29:22.492Z,12.43
2018-03-26T14:31:50.456Z,14.30
2018-03-26T14:34:17.579Z,12.83
2018-03-26T14:36:44.691Z,11.87
2018-03-26T14:39:12.604Z,14.87
2018-03-26T14:41:39.858Z,12.27
2018-03-26T14:44:07.917Z,14.23
2018-03-26T14:46:35.089Z,10.37
2018-03-26T14:49:02.197Z,9.50
2018-03-26T14:51:30.104Z,14.40
2018-03-26T14:53:57.253Z,14.53
2018-03-26T14:56:24.535Z,12.10
2018-03-26T14:58:51.669Z,14.17
2018-03-26T15:01:18.922Z,12.30
2018-03-26T15:03:45.897Z,14.47
2018-03-26T15:06:13.769Z,11.90
2018-03-26T15:08:41.651Z,10.87
2018-03-26T15:11:08.952Z,12.47
2018-03-26T15:13:36.070Z,10.37
2018-03-26T15:16:03.193Z,12.50
2018-03-26T15:18:30.324Z,12.17
2018-03-26T15:20:57.505Z,10.63
2018-03-26T15:23:24.733Z,13.80
2018-03-26T15:25:51.847Z,10.40
2018-03-26T15:28:18.960Z,10.27
2018-03-26T15:30:46.109Z,12.00
2018-03-26T15:33:13.369Z,10.40
2018-03-26T15:35:40.474Z,12.60
2018-03-26T15:38:07.589Z,12.67
2018-03-26T15:40:34.712Z,10.87
2018-03-26T15:43:01.836Z,10.73
2018-03-26T15:45:29.769Z,16.20
2018-03-26T15:47:56.900Z,12.73
2018-03-26T15:50:24.211Z,9.87
2018-03-26T15:52:52.077Z,14.47
2018-03-26T15:55:19.944Z,13.17
2018-03-26T15:57:47.081Z,17.23
2018-03-26T16:00:14.329Z,12.60
2018-03-26T16:02:46.968Z,9.30
2018-03-26T16:05:14.878Z,12.07
2018-03-26T16:07:42.105Z,11.57
2018-03-26T16:10:09.307Z,9.43
2018-03-26T16:12:36.469Z,13.27
2018-03-26T16:15:03.669Z,9.97
2018-03-26T16:17:30.847Z,12.20
2018-03-26T16:19:58.263Z,8.80
2018-03-26T16:22:26.270Z,14.50
2018-03-26T16:24:53.407Z,11.60
2018-03-26T16:27:20.555Z,12.70
2018-03-26T16:29:47.707Z,9.87
2018-03-26T16:32:14.867Z,9.33
2018-03-26T16:34:42.307Z,11.27
2018-03-26T16:37:09.492Z,9.23
2018-03-26T16:39:37.511Z,11.57
2018-03-26T16:42:04.644Z,9.00
2018-03-26T16:44:31.835Z,14.70
2018-03-26T16:46:59.994Z,11.93
2018-03-26T16:49:27.147Z,9.83
2018-03-26T16:51:54.323Z,13.93
2018-03-26T16:54:21.496Z,11.67
2018-03-26T16:56:48.731Z,9.57
2018-03-26T16:59:15.876Z,12.07
2018-03-26T17:01:43.158Z,11.70
2018-03-26T17:04:10.310Z,8.50
2018-03-26T17:06:37.469Z,12.47
2018-03-26T17:09:04.650Z,9.77
2018-03-26T17:11:32.547Z,9.00
2018-03-26T17:13:59.710Z,8.93
2018-03-26T17:16:26.946Z,8.77
2018-03-26T17:18:54.084Z,10.63
2018-03-26T17:21:21.354Z,10.70
2018-03-26T17:23:48.476Z,10.43
2018-03-26T17:26:15.628Z,9.97
2018-03-26T17:28:42.930Z,13.10
2018-03-26T17:31:10.080Z,9.03
2018-03-26T17:33:37.208Z,16.63
2018-03-26T17:36:04.370Z,10.37
2018-03-26T17:38:31.503Z,14.17
2018-03-26T17:40:58.726Z,15.03
2018-03-26T17:43:25.877Z,15.83
2018-03-26T17:45:53.006Z,11.30
2018-03-26T17:48:20.149Z,12.17
2018-03-26T17:50:47.353Z,31.47
2018-03-26T17:53:14.496Z,36.83
2018-03-26T17:55:41.640Z,41.73
2018-03-26T17:58:08.786Z,40.57
2018-03-26T18:00:35.928Z,40.27
2018-03-26T18:03:03.118Z,39.97
2018-03-26T18:05:31.150Z,40.43
2018-03-26T18:07:58.292Z,41.23
2018-03-26T18:10:25.664Z,46.13
2018-03-26T18:12:52.815Z,37.17
2018-03-26T18:15:20.721Z,38.93
2018-03-26T18:17:47.896Z,32.30
2018-03-26T18:20:15.248Z,32.73
2018-03-26T18:22:42.394Z,33.00
2018-03-26T18:25:09.518Z,25.17
2018-03-26T18:27:38.183Z,25.53
2018-03-26T18:30:05.419Z,26.37
2018-03-26T18:32:32.559Z,24.90
2018-03-26T18:34:59.729Z,20.33
2018-03-26T18:37:27.137Z,22.50
2018-03-26T18:39:54.272Z,20.03
2018-03-26T18:42:21.431Z,21.43
2018-03-26T18:44:48.585Z,20.27
2018-03-26T18:47:15.862Z,18.27
2018-03-26T18:49:43.021Z,17.23
2018-03-26T18:52:10.266Z,14.23
2018-03-26T18:54:37.403Z,17.00
2018-03-26T18:57:04.643Z,15.70
2018-03-26T18:59:31.907Z,16.73
2018-03-26T19:01:59.056Z,15.30
2018-03-26T19:04:26.309Z,14.37
2018-03-26T19:06:54.232Z,20.07
2018-03-26T19:09:21.398Z,17.53
2018-03-26T19:11:48.528Z,14.67
2018-03-26T19:14:15.744Z,15.67
2018-03-26T19:16:43.890Z,12.37
2018-03-26T19:19:11.992Z,18.27
2018-03-26T19:21:40.005Z,12.27
2018-03-26T19:24:07.165Z,12.87
2018-03-26T19:26:35.082Z,11.67
2018-03-26T19:29:02.289Z,10.73
2018-03-26T19:31:30.216Z,18.77
2018-03-26T19:33:57.352Z,9.10
2018-03-26T19:36:24.528Z,9.30
2018-03-26T19:38:51.674Z,8.80
2018-03-26T19:41:18.861Z,12.10
2018-03-26T19:43:46.009Z,11.33
2018-03-26T19:46:13.933Z,7.70
2018-03-26T19:48:41.079Z,9.40
2018-03-26T19:51:08.222Z,7.80
2018-03-26T19:53:35.341Z,7.87
2018-03-26T19:56:02.737Z,7.33
2018-03-26T19:58:30.140Z,7.60
2018-03-26T20:00:57.523Z,8.23
2018-03-26T20:03:24.687Z,7.53
2018-03-26T20:05:51.817Z,8.23
2018-03-26T20:08:19.025Z,9.70
2018-03-26T20:10:46.948Z,9.83
2018-03-26T20:13:14.089Z,9.20
2018-03-26T20:15:41.218Z,9.63
2018-03-26T20:18:08.417Z,7.73
2018-03-26T20:20:35.587Z,8.27
2018-03-26T20:23:02.518Z,9.67
2018-03-26T20:25:29.691Z,8.23
2018-03-26T20:27:56.621Z,8.93
2018-03-26T20:30:23.786Z,8.93
2018-03-26T20:32:51.024Z,13.37
2018-03-26T20:35:18.379Z,15.70
2018-03-26T20:37:45.538Z,8.27
2018-03-26T20:40:12.691Z,9.13
2018-03-26T20:42:39.873Z,12.40
2018-03-26T20:45:07.013Z,7.60
2018-03-26T20:47:34.193Z,9.33
2018-03-26T20:50:01.356Z,10.33
2018-03-26T20:52:29.303Z,11.05
2018-03-26T20:54:56.423Z,7.27
2018-03-26T20:57:23.668Z,8.17
2018-03-26T20:59:50.909Z,11.13
2018-03-26T21:02:18.046Z,10.77
2018-03-26T21:04:45.207Z,7.33
2018-03-26T21:07:12.657Z,9.57
2018-03-26T21:09:39.911Z,10.07
2018-03-26T21:12:07.160Z,5.77
2018-03-26T21:14:34.524Z,9.13
2018-03-26T21:17:01.705Z,6.00
2018-03-26T21:19:28.890Z,7.73
2018-03-26T21:21:56.057Z,11.17
2018-03-26T21:24:24.201Z,11.10
2018-03-26T21:26:51.469Z,10.37
2018-03-26T21:29:18.602Z,8.83
2018-03-26T21:31:45.766Z,10.33
2018-03-26T21:34:12.731Z,7.80
2018-03-26T21:36:39.617Z,9.37
2018-03-26T21:39:07.539Z,16.27
2018-03-26T21:41:34.704Z,11.17
2018-03-26T21:44:01.889Z,13.57
2018-03-26T21:46:29.114Z,7.77
2018-03-26T21:48:56.086Z,11.57
2018-03-26T21:51:23.256Z,8.37
2018-03-26T21:53:50.481Z,6.37
2018-03-26T21:56:18.588Z,9.17
2018-03-26T21:58:45.725Z,9.57
2018-03-26T22:01:12.855Z,8.80
2018-03-26T22:03:40.024Z,10.90
2018-03-26T22:06:07.953Z,7.33
2018-03-26T22:08:35.112Z,8.27
2018-03-26T22:11:02.260Z,8.83
2018-03-26T22:13:29.432Z,11.73
2018-03-26T22:15:57.356Z,9.90
2018-03-26T22:18:24.486Z,7.13
2018-03-26T22:20:52.366Z,9.10
2018-03-26T22:23:19.556Z,7.17
2018-03-26T22:25:46.791Z,6.00
2018-03-26T22:28:14.847Z,12.37
2018-03-26T22:30:41.988Z,6.77
2018-03-26T22:33:09.207Z,7.87
2018-03-26T22:35:36.356Z,6.67
2018-03-26T22:38:03.502Z,6.73
2018-03-26T22:40:30.638Z,9.33
2018-03-26T22:42:57.802Z,9.30
2018-03-26T22:45:24.963Z,8.33
2018-03-26T22:47:52.876Z,8.63
2018-03-26T22:50:20.032Z,6.77
2018-03-26T22:52:47.168Z,6.17
2018-03-26T22:55:14.336Z,6.13
2018-03-26T22:57:41.660Z,7.53
2018-03-26T23:00:09.588Z,10.83
2018-03-26T23:02:36.749Z,11.40
2018-03-26T23:05:04.095Z,9.87
2018-03-26T23:07:31.238Z,7.20
2018-03-26T23:09:58.380Z,7.83
2018-03-26T23:12:25.715Z,9.63
2018-03-26T23:14:52.854Z,6.87
2018-03-26T23:17:20.790Z,6.77
2018-03-26T23:19:47.946Z,6.77
2018-03-26T23:22:15.098Z,6.60
2018-03-26T23:24:42.248Z,8.37
2018-03-26T23:27:09.577Z,7.53
2018-03-26T23:29:36.712Z,9.57
2018-03-26T23:32:03.981Z,6.07
2018-03-26T23:34:31.127Z,7.93
2018-03-26T23:36:58.334Z,6.33
2018-03-26T23:39:25.472Z,6.63
2018-03-26T23:41:52.642Z,5.87
2018-03-26T23:44:19.883Z,5.67
2018-03-26T23:46:47.025Z,7.43
2018-03-26T23:49:14.170Z,7.93
2018-03-26T23:51:41.416Z,5.80
2018-03-26T23:54:08.667Z,11.63
2018-03-26T23:56:35.830Z,6.23
2018-03-26T23:59:03.114Z,11.03
